• Join FlightAware (Why Join?)
  • Login
  • US Flag 
04:31PM EDT


 

Airport Tracker/Info


-or-


 

Live Flight TrackerFlight Track Log ✈ BER6776 ✈ 22-Apr-2013 ✈ EDDL / DUS - EDDN / NUE

Flight Track Log - Related Links

Times and Time Zones

All times are in EDT time to prevent confusion due to time zone crossing. See the BER6776 flight status page for this flight to view local times or setup timezone preferences in your user account.

Time Position Orientation Groundspeed Altitude Reporting Facility
EDT Latitude Longitude Course Direction KTS MPH feet Rate Location/Type
02:48PM 50.7611 8.1145 121° Southeast  Level Estimated
02:49PM 50.7227 8.2095 122° Southeast  Level Estimated
02:50PM 50.6843 8.3045 123° Southeast  Level Estimated
02:51PM 50.6459 8.3993 123° Southeast  Level Estimated
02:52PM 50.6073 8.4939 123° Southeast  Level Estimated
02:53PM 50.5686 8.5884 123° Southeast  Level Estimated
02:54PM 50.5299 8.6827 123° Southeast  Level Estimated
02:55PM 50.4911 8.7768 123° Southeast  Level Estimated
02:56PM 50.4523 8.8708 123° Southeast  Level Estimated
02:57PM 50.4133 8.9647 123° Southeast  Level Estimated
02:58PM 50.3743 9.0584 123° Southeast  Level Estimated
02:59PM 50.3352 9.1519 123° Southeast  Level Estimated
03:00PM 50.2961 9.2453 123° Southeast  Level Estimated
03:01PM 50.2568 9.3385 123° Southeast  Level Estimated
03:02PM 50.2175 9.4316 123° Southeast  Level Estimated
03:03PM 50.1781 9.5245 123° Southeast  Level Estimated
03:04PM 50.1386 9.6173 124° Southeast  Level Estimated
03:05PM 50.0991 9.7099 124° Southeast  Level Estimated
03:06PM 50.0595 9.8024 124° Southeast  Level Estimated
03:07PM 50.0198 9.8947 124° Southeast  Level Estimated
03:08PM 49.9801 9.9869 124° Southeast  Level Estimated
03:09PM 49.9402 10.0789 124° Southeast  Level Estimated
03:10PM 49.9003 10.1707 124° Southeast  Level Estimated
03:11PM 49.8604 10.2625 124° Southeast  Level Estimated
03:12PM 49.8203 10.3540 124° Southeast  Level Estimated
03:13PM 49.7802 10.4454 124° Southeast  Level Estimated
03:14PM 49.7400 10.5366 124° Southeast  Level Estimated
03:15PM 49.6997 10.6278 124° Southeast  Level Estimated
03:16PM 49.6594 10.7187 124° Southeast  Level Estimated
03:17PM 49.6190 10.8095 124° Southeast  Level Estimated
03:18PM 49.5785 10.9002 125° Southeast  Level Estimated
03:19PM 49.5380 10.9907 125° Southeast  Level Estimated
03:20PM 49.4986 11.0781 125° Southeast  Level Estimated
03:21PM 49.4986 11.0781 327° Northwest  Level Estimated
03:22PM 49.4986 11.0781 327° Northwest  Level Estimated
03:23PM 49.4986 11.0781 327° Northwest  Level Estimated
03:24PM 49.4986 11.0781 327° Northwest  Level Estimated
03:25PM 49.4986 11.0781 327° Northwest  Level Estimated
03:26PM 49.4986 11.0781 327° Northwest  Level Estimated
03:27PM 49.4986 11.0781 327° Northwest  Level Estimated
03:28PM 49.4986 11.0781 327° Northwest  Level Estimated
03:29PM 49.4986 11.0781 327° Northwest  Level Estimated
03:30PM 49.4986 11.0781 327° Northwest  Level Estimated
03:31PM 49.4986 11.0781 327° Northwest  Level Estimated
03:32PM 49.4986 11.0781 327° Northwest  Level Estimated
03:33PM 49.4986 11.0781 327° Northwest  Level Estimated
03:34PM 49.4986 11.0781 327° Northwest  Level Estimated
03:35PM 49.4986 11.0781 327° Northwest  Level Estimated
03:36PM 49.4986 11.0781 327° Northwest  Level Estimated